createdAt,value
2018-03-11T00:01:18.928Z,10.30
2018-03-11T00:03:48.194Z,10.30
2018-03-11T00:06:17.526Z,10.30
2018-03-11T00:08:46.743Z,10.30
2018-03-11T00:11:16.052Z,10.30
2018-03-11T00:13:45.355Z,10.30
2018-03-11T00:16:15.411Z,10.30
2018-03-11T00:18:45.492Z,10.30
2018-03-11T00:21:14.786Z,10.20
2018-03-11T00:23:44.098Z,10.30
2018-03-11T00:26:13.486Z,10.30
2018-03-11T00:28:42.923Z,10.30
2018-03-11T00:31:12.270Z,10.30
2018-03-11T00:33:42.386Z,10.30
2018-03-11T00:36:11.830Z,10.30
2018-03-11T00:38:41.791Z,10.30
2018-03-11T00:41:11.182Z,10.20
2018-03-11T00:43:41.294Z,10.20
2018-03-11T00:46:11.430Z,10.20
2018-03-11T00:48:40.789Z,10.10
2018-03-11T00:51:10.128Z,10.10
2018-03-11T00:53:39.408Z,10.10
2018-03-11T00:56:08.809Z,10.10
2018-03-11T00:58:38.130Z,10.10
2018-03-11T01:01:07.397Z,10.00
2018-03-11T01:03:37.653Z,10.00
2018-03-11T01:06:06.931Z,10.00
2018-03-11T01:08:36.260Z,10.00
2018-03-11T01:11:06.010Z,10.00
2018-03-11T01:13:35.275Z,10.00
2018-03-11T01:16:04.582Z,10.00
2018-03-11T01:18:33.936Z,9.90
2018-03-11T01:21:03.273Z,9.90
2018-03-11T01:23:32.534Z,9.80
2018-03-11T01:26:01.815Z,9.80
2018-03-11T01:28:31.113Z,9.80
2018-03-11T01:31:00.411Z,9.70
2018-03-11T01:33:29.620Z,9.70
2018-03-11T01:35:59.603Z,9.70
2018-03-11T01:38:28.858Z,9.70
2018-03-11T01:40:58.169Z,9.70
2018-03-11T01:43:27.499Z,9.70
2018-03-11T01:45:56.749Z,9.70
2018-03-11T01:48:26.796Z,9.70
2018-03-11T01:50:56.859Z,9.70
2018-03-11T01:53:26.244Z,9.70
2018-03-11T01:55:55.545Z,9.80
2018-03-11T01:58:25.565Z,9.80
2018-03-11T02:00:55.605Z,9.70
2018-03-11T02:03:25.632Z,9.70
2018-03-11T02:05:55.709Z,9.70
2018-03-11T02:08:25.017Z,9.70
2018-03-11T02:10:54.320Z,9.70
2018-03-11T02:13:23.619Z,9.60
2018-03-11T02:15:53.627Z,9.30
2018-03-11T02:18:22.997Z,9.30
2018-03-11T02:20:52.248Z,9.20
2018-03-11T02:23:21.637Z,9.10
2018-03-11T02:25:50.939Z,8.90
2018-03-11T02:28:20.190Z,8.80
2018-03-11T02:30:50.327Z,8.50
2018-03-11T02:33:19.609Z,8.50
2018-03-11T02:35:49.675Z,8.40
2018-03-11T02:38:18.969Z,8.40
2018-03-11T02:40:48.292Z,8.30
2018-03-11T02:43:17.621Z,8.20
2018-03-11T02:45:46.853Z,8.10
2018-03-11T02:48:19.167Z,8.00
2018-03-11T02:50:49.262Z,7.90
2018-03-11T02:53:18.637Z,7.90
2018-03-11T02:55:48.666Z,7.90
2018-03-11T02:58:18.005Z,7.80
2018-03-11T03:00:47.386Z,7.90
2018-03-11T03:03:17.588Z,7.80
2018-03-11T03:05:46.828Z,7.80
2018-03-11T03:08:16.853Z,7.70
2018-03-11T03:10:46.939Z,7.60
2018-03-11T03:13:17.036Z,7.60
2018-03-11T03:15:46.338Z,7.60
2018-03-11T03:18:15.646Z,7.50
2018-03-11T03:20:45.143Z,7.50
2018-03-11T03:23:15.199Z,7.40
2018-03-11T03:25:44.532Z,7.40
2018-03-11T03:28:13.870Z,7.40
2018-03-11T03:30:43.332Z,7.40
2018-03-11T03:33:27.416Z,7.40
2018-03-11T03:35:56.692Z,7.30
2018-03-11T03:38:25.972Z,7.20
2018-03-11T03:40:55.206Z,7.20
2018-03-11T03:43:24.462Z,7.00
2018-03-11T03:45:53.896Z,7.10
2018-03-11T03:48:23.164Z,7.10
2018-03-11T03:50:52.452Z,7.10
2018-03-11T03:53:21.705Z,7.00
2018-03-11T03:55:51.024Z,7.00
2018-03-11T03:58:20.338Z,6.90
2018-03-11T04:00:51.437Z,6.90
2018-03-11T04:03:20.787Z,6.90
2018-03-11T04:05:50.120Z,6.90
2018-03-11T04:08:20.228Z,6.80
2018-03-11T04:10:50.430Z,6.70
2018-03-11T04:13:20.101Z,6.80
2018-03-11T04:15:49.470Z,6.80
2018-03-11T04:18:18.822Z,6.70
2018-03-11T04:20:48.223Z,6.70
2018-03-11T04:23:17.593Z,6.70
2018-03-11T04:25:46.882Z,6.70
2018-03-11T04:28:16.190Z,6.70
2018-03-11T04:30:46.259Z,6.60
2018-03-11T04:33:16.307Z,6.60
2018-03-11T04:35:45.603Z,6.60
2018-03-11T04:38:14.875Z,6.50
2018-03-11T04:40:44.138Z,6.50
2018-03-11T04:43:13.480Z,6.40
2018-03-11T04:45:42.805Z,6.40
2018-03-11T04:48:12.879Z,6.30
2018-03-11T04:50:42.194Z,6.20
2018-03-11T04:53:12.251Z,6.20
2018-03-11T04:55:41.528Z,6.10
2018-03-11T04:58:10.834Z,6.10
2018-03-11T05:00:40.117Z,6.00
2018-03-11T05:03:09.404Z,6.00
2018-03-11T05:05:38.722Z,5.90
2018-03-11T05:08:07.976Z,5.90
2018-03-11T05:10:37.274Z,5.90
2018-03-11T05:13:06.573Z,5.90
2018-03-11T05:15:35.847Z,6.00
2018-03-11T05:18:05.061Z,6.00
2018-03-11T05:20:34.328Z,6.00
2018-03-11T05:23:03.592Z,6.00
2018-03-11T05:25:32.866Z,6.00
2018-03-11T05:28:02.150Z,6.00
2018-03-11T05:30:31.452Z,6.00
2018-03-11T05:33:01.516Z,6.10
2018-03-11T05:35:30.816Z,6.10
2018-03-11T05:38:00.098Z,6.10
2018-03-11T05:40:30.187Z,6.10
2018-03-11T05:42:59.438Z,6.10
2018-03-11T05:45:29.519Z,6.20
2018-03-11T05:47:58.797Z,6.10
2018-03-11T05:50:28.281Z,6.10
2018-03-11T05:52:57.522Z,6.10
2018-03-11T05:55:26.912Z,6.10
2018-03-11T05:57:56.235Z,6.10
2018-03-11T06:00:26.373Z,6.20
2018-03-11T06:02:55.715Z,6.20
2018-03-11T06:05:24.983Z,6.30
2018-03-11T06:07:55.295Z,6.50
2018-03-11T06:10:24.681Z,6.50
2018-03-11T06:12:53.960Z,6.60
2018-03-11T06:15:23.291Z,6.70
2018-03-11T06:17:52.717Z,6.80
2018-03-11T06:20:22.148Z,7.00
2018-03-11T06:22:51.485Z,7.10
2018-03-11T06:25:20.785Z,7.20
2018-03-11T06:27:50.940Z,7.40
2018-03-11T06:30:20.266Z,7.40
2018-03-11T06:32:50.357Z,7.50
2018-03-11T06:35:20.654Z,7.60
2018-03-11T06:37:49.925Z,7.70
2018-03-11T06:40:20.113Z,7.90
2018-03-11T06:42:49.384Z,7.90
2018-03-11T06:45:19.406Z,8.10
2018-03-11T06:47:49.469Z,8.20
2018-03-11T06:50:18.752Z,8.20
2018-03-11T06:52:48.052Z,8.30
2018-03-11T06:55:17.340Z,8.40
2018-03-11T06:57:46.636Z,8.40
2018-03-11T07:00:15.764Z,8.40
2018-03-11T07:02:44.735Z,8.50
2018-03-11T07:05:13.729Z,8.50
2018-03-11T07:07:43.145Z,8.50
2018-03-11T07:10:12.550Z,8.60
2018-03-11T07:12:41.794Z,8.60
2018-03-11T07:15:11.742Z,8.60
2018-03-11T07:17:40.954Z,8.60
2018-03-11T07:20:10.372Z,8.70
2018-03-11T07:22:39.669Z,8.80
2018-03-11T07:25:08.898Z,8.80
2018-03-11T07:27:38.155Z,9.00
2018-03-11T07:30:07.456Z,9.10
2018-03-11T07:32:38.241Z,9.40
2018-03-11T07:35:07.592Z,9.40
2018-03-11T07:37:36.962Z,9.50
2018-03-11T07:40:06.183Z,9.70
2018-03-11T07:42:35.386Z,9.80
2018-03-11T07:45:04.781Z,10.00
2018-03-11T07:47:33.981Z,10.20
2018-03-11T07:50:03.197Z,10.30
2018-03-11T07:52:32.490Z,10.50
2018-03-11T07:55:01.887Z,10.70
2018-03-11T07:57:31.122Z,10.80
2018-03-11T08:00:01.121Z,11.00
2018-03-11T08:02:30.413Z,11.00
2018-03-11T08:04:59.807Z,11.10
2018-03-11T08:07:29.041Z,11.10
2018-03-11T08:09:59.014Z,11.10
2018-03-11T08:12:28.305Z,11.10
2018-03-11T08:14:57.513Z,11.20
2018-03-11T08:17:27.021Z,11.40
2018-03-11T08:19:56.424Z,11.70
2018-03-11T08:22:25.927Z,12.00
2018-03-11T08:24:55.188Z,12.30
2018-03-11T08:27:24.750Z,12.60
2018-03-11T08:29:53.957Z,12.80
2018-03-11T08:32:23.228Z,12.90
2018-03-11T08:34:52.496Z,13.00
2018-03-11T08:37:21.858Z,13.00
2018-03-11T08:39:51.133Z,13.10
2018-03-11T08:42:20.346Z,13.20
2018-03-11T08:44:49.725Z,13.40
2018-03-11T08:47:19.038Z,13.50
2018-03-11T08:49:49.156Z,13.70
2018-03-11T08:52:18.451Z,13.70
2018-03-11T08:54:47.639Z,13.90
2018-03-11T08:57:17.866Z,14.20
2018-03-11T08:59:47.027Z,14.40
2018-03-11T09:02:17.001Z,14.80
2018-03-11T09:04:46.009Z,14.70
2018-03-11T09:07:15.362Z,14.90
2018-03-11T09:09:44.620Z,15.00
2018-03-11T09:12:14.734Z,14.90
2018-03-11T09:14:44.093Z,14.90
2018-03-11T09:17:13.362Z,14.80
2018-03-11T09:19:42.587Z,14.90
2018-03-11T09:22:12.627Z,15.00
2018-03-11T09:24:42.689Z,15.10
2018-03-11T09:27:12.115Z,15.10
2018-03-11T09:29:41.567Z,15.10
2018-03-11T09:32:11.030Z,15.20
2018-03-11T09:34:40.236Z,15.20
2018-03-11T09:37:09.434Z,15.10
2018-03-11T09:39:38.639Z,15.20
2018-03-11T09:42:07.997Z,15.20
2018-03-11T09:44:37.256Z,15.40
2018-03-11T09:47:06.580Z,15.40
2018-03-11T09:49:35.919Z,15.40
2018-03-11T09:52:05.180Z,15.60
2018-03-11T09:54:35.291Z,15.90
2018-03-11T09:57:04.655Z,15.80
2018-03-11T09:59:33.878Z,15.90
2018-03-11T10:02:06.017Z,16.20
2018-03-11T10:04:35.188Z,16.20
2018-03-11T10:07:04.454Z,16.40
2018-03-11T10:09:34.689Z,16.90
2018-03-11T10:12:04.460Z,17.20
2018-03-11T10:14:33.641Z,17.20
2018-03-11T10:17:02.844Z,17.40
2018-03-11T10:19:32.087Z,17.80
2018-03-11T10:22:01.374Z,18.00
2018-03-11T10:24:30.841Z,18.20
2018-03-11T10:26:59.804Z,18.60
2018-03-11T10:29:29.041Z,18.90
2018-03-11T10:31:58.366Z,19.00
2018-03-11T10:34:27.734Z,19.10
2018-03-11T10:36:57.141Z,19.20
2018-03-11T10:39:26.330Z,19.20
2018-03-11T10:41:55.535Z,19.20
2018-03-11T10:44:24.968Z,19.30
2018-03-11T10:46:54.142Z,19.30
2018-03-11T10:49:23.433Z,19.50
2018-03-11T10:51:52.674Z,19.60
2018-03-11T10:54:21.940Z,19.60
2018-03-11T10:56:51.166Z,19.40
2018-03-11T10:59:21.244Z,19.20
2018-03-11T11:01:55.974Z,19.20
2018-03-11T11:04:41.381Z,19.10
2018-03-11T11:07:10.377Z,19.00
2018-03-11T11:09:39.373Z,19.00
2018-03-11T11:12:08.358Z,19.10
2018-03-11T11:14:37.353Z,19.20
2018-03-11T11:17:06.312Z,19.40
2018-03-11T11:19:35.301Z,19.50
2018-03-11T11:22:04.256Z,19.60
2018-03-11T11:24:34.240Z,19.90
2018-03-11T11:27:03.250Z,19.90
2018-03-11T11:29:32.612Z,19.90
2018-03-11T11:32:05.496Z,19.90
2018-03-11T11:34:34.750Z,19.90
2018-03-11T11:37:04.914Z,20.20
2018-03-11T11:39:33.955Z,20.30
2018-03-11T11:42:03.931Z,20.70
2018-03-11T11:44:33.123Z,20.60
2018-03-11T11:47:02.319Z,20.80
2018-03-11T11:49:31.356Z,21.00
2018-03-11T11:52:00.715Z,21.00
2018-03-11T11:54:29.881Z,21.20
2018-03-11T11:56:59.035Z,21.30
2018-03-11T11:59:29.002Z,21.60
2018-03-11T12:01:58.209Z,21.60
2018-03-11T12:04:27.374Z,21.60
2018-03-11T12:06:57.330Z,21.50
2018-03-11T12:09:26.374Z,21.50
2018-03-11T12:11:55.515Z,21.50
2018-03-11T12:14:24.826Z,21.40
2018-03-11T12:16:54.016Z,21.30
2018-03-11T12:19:23.262Z,21.30
2018-03-11T12:21:52.262Z,21.30
2018-03-11T12:24:22.535Z,21.40
2018-03-11T12:26:51.834Z,21.40
2018-03-11T12:29:21.003Z,21.40
2018-03-11T12:31:50.236Z,21.40
2018-03-11T12:34:19.442Z,21.40
2018-03-11T12:36:48.931Z,21.50
2018-03-11T12:39:18.189Z,21.40
2018-03-11T12:41:48.138Z,21.50
2018-03-11T12:44:17.444Z,21.40
2018-03-11T12:46:46.691Z,21.50
2018-03-11T12:49:15.878Z,21.40
2018-03-11T12:51:45.773Z,21.50
2018-03-11T12:54:14.952Z,21.50
2018-03-11T12:56:44.190Z,21.60
2018-03-11T12:59:13.610Z,21.70
2018-03-11T13:01:42.778Z,21.70
2018-03-11T13:04:11.951Z,21.80
2018-03-11T13:06:41.252Z,21.70
2018-03-11T13:09:10.462Z,21.70
2018-03-11T13:11:39.748Z,21.70
2018-03-11T13:14:09.044Z,21.80
2018-03-11T13:16:38.249Z,21.80
2018-03-11T13:19:07.568Z,21.70
2018-03-11T13:21:37.666Z,21.40
2018-03-11T13:24:07.150Z,21.40
2018-03-11T13:26:36.367Z,21.40
2018-03-11T13:29:05.512Z,21.40
2018-03-11T13:31:34.712Z,21.50
2018-03-11T13:34:30.378Z,21.50
2018-03-11T13:36:59.566Z,21.50
2018-03-11T13:39:44.702Z,21.50
2018-03-11T13:42:14.051Z,21.50
2018-03-11T13:44:43.347Z,21.30
2018-03-11T13:47:12.541Z,21.30
2018-03-11T13:49:42.130Z,21.40
2018-03-11T13:52:23.335Z,21.50
2018-03-11T13:54:52.473Z,21.70
2018-03-11T14:00:34.420Z,22.00
2018-03-11T14:03:03.586Z,22.00
2018-03-11T14:05:32.886Z,22.00
2018-03-11T14:08:02.233Z,22.10
2018-03-11T14:10:31.430Z,22.00
2018-03-11T14:13:00.653Z,21.90
2018-03-11T14:15:29.930Z,21.80
2018-03-11T14:17:59.224Z,21.80
2018-03-11T14:20:28.496Z,21.90
2018-03-11T14:22:57.760Z,21.90
2018-03-11T14:25:27.153Z,22.00
2018-03-11T14:27:56.456Z,22.00
2018-03-11T14:30:25.639Z,21.80
2018-03-11T14:32:54.853Z,21.60
2018-03-11T14:35:24.860Z,21.20
2018-03-11T14:37:54.118Z,21.20
2018-03-11T14:40:24.144Z,20.80
2018-03-11T14:42:54.256Z,20.70
2018-03-11T14:45:24.291Z,20.50
2018-03-11T14:47:53.520Z,20.50
2018-03-11T14:50:23.578Z,20.50
2018-03-11T14:52:52.868Z,20.40
2018-03-11T14:55:22.135Z,20.40
2018-03-11T14:57:52.268Z,20.30
2018-03-11T15:00:21.507Z,20.20
2018-03-11T15:02:50.776Z,20.20
2018-03-11T15:05:20.211Z,20.10
2018-03-11T15:07:50.254Z,20.10
2018-03-11T15:10:19.537Z,20.00
2018-03-11T15:12:48.765Z,20.00
2018-03-11T15:15:18.064Z,19.80
2018-03-11T15:17:47.307Z,19.80
2018-03-11T15:20:16.597Z,19.70
2018-03-11T15:22:45.904Z,19.60
2018-03-11T15:25:15.172Z,19.50
2018-03-11T15:27:44.425Z,19.50
2018-03-11T15:30:14.473Z,19.40
2018-03-11T15:32:43.739Z,19.30
2018-03-11T15:35:12.955Z,19.30
2018-03-11T15:37:42.308Z,19.30
2018-03-11T15:40:12.356Z,19.00
2018-03-11T15:42:41.662Z,19.00
2018-03-11T15:45:10.933Z,19.00
2018-03-11T15:47:40.229Z,19.00
2018-03-11T15:50:09.681Z,19.00
2018-03-11T15:52:39.032Z,19.00
2018-03-11T15:55:08.606Z,18.90
2018-03-11T15:57:37.913Z,18.80
2018-03-11T16:00:07.252Z,18.70
2018-03-11T16:02:36.566Z,18.50
2018-03-11T16:05:05.921Z,18.40
2018-03-11T16:07:35.498Z,18.30
2018-03-11T16:10:04.900Z,18.10
2018-03-11T16:12:34.211Z,18.00
2018-03-11T16:15:03.520Z,17.90
2018-03-11T16:17:32.988Z,17.80
2018-03-11T16:20:02.364Z,17.70
2018-03-11T16:22:31.705Z,17.60
2018-03-11T16:25:01.770Z,17.50
2018-03-11T16:27:31.130Z,17.50
2018-03-11T16:30:00.402Z,17.40
2018-03-11T16:32:29.760Z,17.40
2018-03-11T16:34:59.065Z,17.30
2018-03-11T16:37:29.488Z,17.20
2018-03-11T16:39:58.848Z,17.10
2018-03-11T16:42:28.100Z,16.90
2018-03-11T16:44:57.377Z,16.70
2018-03-11T16:47:28.168Z,16.40
2018-03-11T16:49:57.583Z,16.40
2018-03-11T16:52:26.864Z,16.20
2018-03-11T16:54:56.937Z,15.90
2018-03-11T16:57:26.239Z,15.90
2018-03-11T16:59:55.462Z,15.80
2018-03-11T17:02:24.694Z,15.70
2018-03-11T17:04:53.948Z,15.60
2018-03-11T17:07:23.958Z,15.40
2018-03-11T17:09:53.315Z,15.40
2018-03-11T17:12:22.553Z,15.30
2018-03-11T17:14:52.592Z,15.20
2018-03-11T17:17:24.005Z,15.10
2018-03-11T17:19:53.416Z,15.10
2018-03-11T17:22:22.634Z,15.10
2018-03-11T17:24:51.857Z,15.00
2018-03-11T17:27:21.155Z,14.90
2018-03-11T17:29:50.387Z,14.90
2018-03-11T17:32:19.673Z,14.80
2018-03-11T17:34:48.942Z,14.80
2018-03-11T17:37:19.023Z,14.70
2018-03-11T17:39:48.248Z,14.70
2018-03-11T17:42:17.597Z,14.70
2018-03-11T17:44:47.626Z,14.60
2018-03-11T17:47:16.887Z,14.60
2018-03-11T17:49:46.132Z,14.60
2018-03-11T17:52:16.646Z,14.40
2018-03-11T17:54:46.504Z,14.40
2018-03-11T17:57:16.083Z,14.40
2018-03-11T17:59:45.461Z,14.40
2018-03-11T18:02:14.759Z,14.50
2018-03-11T18:04:44.133Z,14.40
2018-03-11T18:07:13.540Z,14.40
2018-03-11T18:09:42.851Z,14.30
2018-03-11T18:12:12.152Z,14.30
2018-03-11T18:14:41.493Z,14.20
2018-03-11T18:17:11.705Z,14.00
2018-03-11T18:19:41.805Z,14.10
2018-03-11T18:22:11.152Z,14.00
2018-03-11T18:24:41.339Z,14.20
2018-03-11T18:27:10.901Z,14.20
2018-03-11T18:29:40.344Z,14.20
2018-03-11T18:32:09.853Z,14.10
2018-03-11T18:34:39.201Z,14.10
2018-03-11T18:37:09.045Z,14.10
2018-03-11T18:39:38.420Z,14.00
2018-03-11T18:45:12.357Z,13.90
2018-03-11T18:47:41.628Z,13.80
2018-03-11T18:50:10.952Z,13.70
2018-03-11T18:52:41.042Z,13.60
2018-03-11T18:55:10.420Z,13.50
2018-03-11T18:57:39.754Z,13.50
2018-03-11T19:00:10.281Z,13.40
2018-03-11T19:02:39.708Z,13.30
2018-03-11T19:05:09.120Z,13.30
2018-03-11T19:07:38.488Z,13.30
2018-03-11T19:10:08.019Z,13.30
2018-03-11T19:12:37.319Z,13.20
2018-03-11T19:15:06.658Z,13.20
2018-03-11T19:17:35.996Z,13.10
2018-03-11T19:20:06.176Z,13.10
2018-03-11T19:22:36.419Z,13.10
2018-03-11T19:25:06.758Z,13.10
2018-03-11T19:27:36.127Z,13.00
2018-03-11T19:30:05.676Z,13.00
2018-03-11T19:32:35.785Z,13.00
2018-03-11T19:35:05.094Z,12.90
2018-03-11T19:37:34.421Z,12.90
2018-03-11T19:40:03.727Z,12.90
2018-03-11T19:42:34.437Z,12.80
2018-03-11T19:45:04.116Z,12.80
2018-03-11T19:47:33.387Z,12.70
2018-03-11T19:50:02.728Z,12.70
2018-03-11T19:52:32.046Z,12.70
2018-03-11T19:55:01.344Z,12.70
2018-03-11T19:57:30.619Z,12.60
2018-03-11T19:59:59.940Z,12.60
2018-03-11T20:02:29.245Z,12.60
2018-03-11T20:04:58.527Z,12.60
2018-03-11T20:07:28.558Z,12.50
2018-03-11T20:09:57.876Z,12.50
2018-03-11T20:12:27.124Z,12.40
2018-03-11T20:14:56.402Z,12.30
2018-03-11T20:17:25.697Z,12.30
2018-03-11T20:19:54.896Z,12.20
2018-03-11T20:22:24.193Z,12.20
2018-03-11T20:24:53.512Z,12.10
2018-03-11T20:27:22.801Z,12.10
2018-03-11T20:29:52.098Z,12.10
2018-03-11T20:32:21.377Z,12.10
2018-03-11T20:34:50.627Z,12.00
2018-03-11T20:37:19.928Z,12.00
2018-03-11T20:39:49.972Z,12.00
2018-03-11T20:42:19.393Z,12.00
2018-03-11T20:44:48.584Z,12.00
2018-03-11T20:47:17.848Z,12.00
2018-03-11T20:49:47.908Z,12.00
2018-03-11T20:52:17.223Z,11.90
2018-03-11T20:54:46.481Z,11.90
2018-03-11T20:57:15.772Z,12.00
2018-03-11T20:59:45.058Z,12.00
2018-03-11T21:02:14.339Z,12.00
2018-03-11T21:04:44.431Z,12.00
2018-03-11T21:07:13.730Z,12.10
2018-03-11T21:09:43.057Z,12.10
2018-03-11T21:12:12.410Z,12.10
2018-03-11T21:14:41.902Z,12.00
2018-03-11T21:17:12.067Z,12.00
2018-03-11T21:19:41.571Z,12.00
2018-03-11T21:22:11.890Z,12.00
2018-03-11T21:24:41.205Z,12.00
2018-03-11T21:27:10.813Z,12.00
2018-03-11T21:29:40.079Z,12.00
2018-03-11T21:32:10.391Z,12.10
2018-03-11T21:34:39.905Z,12.10
2018-03-11T21:37:09.242Z,12.00
2018-03-11T21:39:38.542Z,12.00
2018-03-11T21:42:07.897Z,12.00
2018-03-11T21:44:37.218Z,11.90
2018-03-11T21:47:07.428Z,11.70
2018-03-11T21:49:36.789Z,11.70
2018-03-11T21:52:06.783Z,11.60
2018-03-11T21:54:36.080Z,11.60
2018-03-11T21:57:05.460Z,11.50
2018-03-11T21:59:35.797Z,11.50
2018-03-11T22:02:05.198Z,11.50
2018-03-11T22:04:35.141Z,11.40
2018-03-11T22:07:04.642Z,11.40
2018-03-11T22:09:34.961Z,11.40
2018-03-11T22:12:04.314Z,11.40
2018-03-11T22:14:33.725Z,11.30
2018-03-11T22:17:03.043Z,11.30
2018-03-11T22:19:32.317Z,11.40
2018-03-11T22:22:02.408Z,11.30
2018-03-11T22:24:31.769Z,11.30
2018-03-11T22:27:01.104Z,11.30
2018-03-11T22:29:30.372Z,11.40
2018-03-11T22:32:00.458Z,11.40
2018-03-11T22:34:29.919Z,11.40
2018-03-11T22:36:59.242Z,11.30
2018-03-11T22:39:28.511Z,11.30
2018-03-11T22:41:57.730Z,11.20
2018-03-11T22:44:26.977Z,11.20
2018-03-11T22:46:57.046Z,11.00
2018-03-11T22:49:26.281Z,11.00
2018-03-11T22:51:55.514Z,11.00
2018-03-11T22:54:24.827Z,10.90
2018-03-11T22:56:54.118Z,10.90
2018-03-11T22:59:23.374Z,10.90
2018-03-11T23:01:52.671Z,10.90
2018-03-11T23:04:22.690Z,10.80
2018-03-11T23:06:52.692Z,10.80
2018-03-11T23:09:22.032Z,10.80
2018-03-11T23:11:52.090Z,10.80
2018-03-11T23:14:21.466Z,10.70
2018-03-11T23:16:50.692Z,10.70
2018-03-11T23:19:21.878Z,10.70
2018-03-11T23:21:51.898Z,10.70
2018-03-11T23:24:21.916Z,10.70
2018-03-11T23:26:51.222Z,10.70
2018-03-11T23:29:21.244Z,10.70
2018-03-11T23:31:51.284Z,10.80
2018-03-11T23:34:20.554Z,10.80
2018-03-11T23:36:49.799Z,10.80
2018-03-11T23:39:19.864Z,10.80
2018-03-11T23:41:49.023Z,10.80
2018-03-11T23:44:19.065Z,10.70
2018-03-11T23:46:48.307Z,10.70
2018-03-11T23:49:17.566Z,10.70
2018-03-11T23:51:46.840Z,10.60
2018-03-11T23:54:16.117Z,10.60
2018-03-11T23:56:46.132Z,10.60
2018-03-11T23:59:15.396Z,10.60
